sensor_id;sensor_type;location;lat;lon;timestamp;pressure;altitude;pressure_sealevel;temperature;humidity
34648;BME280;20858;53.622;9.802;2022-09-27T00:02:08;99242.50;;;19.91;54.35
34648;BME280;20858;53.622;9.802;2022-09-27T00:04:35;99242.50;;;19.91;54.34
34648;BME280;20858;53.622;9.802;2022-09-27T00:07:00;99241.66;;;19.91;54.63
34648;BME280;20858;53.622;9.802;2022-09-27T00:09:26;99245.84;;;19.93;54.41
34648;BME280;20858;53.622;9.802;2022-09-27T00:11:51;99245.69;;;19.95;54.40
34648;BME280;20858;53.622;9.802;2022-09-27T00:14:17;99249.19;;;19.95;54.34
34648;BME280;20858;53.622;9.802;2022-09-27T00:16:43;99244.69;;;19.96;54.59
34648;BME280;20858;53.622;9.802;2022-09-27T00:19:20;99240.91;;;19.98;54.42
34648;BME280;20858;53.622;9.802;2022-09-27T00:21:47;99242.72;;;19.98;54.59
34648;BME280;20858;53.622;9.802;2022-09-27T00:24:16;99237.41;;;19.98;54.20
34648;BME280;20858;53.622;9.802;2022-09-27T00:26:42;99239.06;;;19.99;53.95
34648;BME280;20858;53.622;9.802;2022-09-27T00:29:09;99230.25;;;19.98;54.49
34648;BME280;20858;53.622;9.802;2022-09-27T00:31:36;99233.88;;;19.97;54.45
34648;BME280;20858;53.622;9.802;2022-09-27T00:34:03;99231.22;;;19.97;54.29
34648;BME280;20858;53.622;9.802;2022-09-27T00:36:30;99230.25;;;19.98;54.46
34648;BME280;20858;53.622;9.802;2022-09-27T00:38:56;99225.75;;;19.99;54.19
34648;BME280;20858;53.622;9.802;2022-09-27T00:41:26;99226.44;;;20.01;53.89
34648;BME280;20858;53.622;9.802;2022-09-27T00:43:58;99223.75;;;20.01;53.88
34648;BME280;20858;53.622;9.802;2022-09-27T00:46:38;99224.59;;;20.02;53.87
34648;BME280;20858;53.622;9.802;2022-09-27T00:51:41;99218.13;;;20.04;54.38
34648;BME280;20858;53.622;9.802;2022-09-27T00:54:10;99213.03;;;20.11;53.90
34648;BME280;20858;53.622;9.802;2022-09-27T00:56:37;99207.56;;;20.12;54.76
34648;BME280;20858;53.622;9.802;2022-09-27T00:59:09;99211.06;;;20.13;54.35
34648;BME280;20858;53.622;9.802;2022-09-27T01:01:36;99211.88;;;20.13;54.43
34648;BME280;20858;53.622;9.802;2022-09-27T01:04:07;99208.22;;;20.14;53.65
34648;BME280;20858;53.622;9.802;2022-09-27T01:06:33;99208.06;;;20.16;53.38
34648;BME280;20858;53.622;9.802;2022-09-27T01:08:58;99210.41;;;20.19;52.89
34648;BME280;20858;53.622;9.802;2022-09-27T01:31:53;99198.88;;;20.10;52.75
34648;BME280;20858;53.622;9.802;2022-09-27T01:34:40;99192.19;;;20.06;52.81
34648;BME280;20858;53.622;9.802;2022-09-27T01:37:20;99185.47;;;20.02;52.73
34648;BME280;20858;53.622;9.802;2022-09-27T01:42:56;99174.78;;;19.94;52.78
34648;BME280;20858;53.622;9.802;2022-09-27T01:45:29;99173.25;;;19.91;52.58
34648;BME280;20858;53.622;9.802;2022-09-27T01:47:58;99175.75;;;19.93;52.66
34648;BME280;20858;53.622;9.802;2022-09-27T01:50:31;99169.09;;;19.89;52.45
34648;BME280;20858;53.622;9.802;2022-09-27T01:53:09;99178.53;;;19.83;52.63
34648;BME280;20858;53.622;9.802;2022-09-27T01:55:37;99167.19;;;19.81;52.55
34648;BME280;20858;53.622;9.802;2022-09-27T01:58:14;99170.16;;;19.78;52.63
34648;BME280;20858;53.622;9.802;2022-09-27T02:00:43;99159.84;;;19.75;52.57
34648;BME280;20858;53.622;9.802;2022-09-27T02:03:13;99157.19;;;19.75;52.53
34648;BME280;20858;53.622;9.802;2022-09-27T02:05:45;99158.31;;;19.72;52.70
34648;BME280;20858;53.622;9.802;2022-09-27T02:08:35;99157.78;;;19.69;52.54
34648;BME280;20858;53.622;9.802;2022-09-27T02:11:07;99157.78;;;19.69;52.43
34648;BME280;20858;53.622;9.802;2022-09-27T02:13:43;99154.44;;;19.67;52.71
34648;BME280;20858;53.622;9.802;2022-09-27T02:21:55;99156.06;;;19.60;52.53
34648;BME280;20858;53.622;9.802;2022-09-27T02:24:31;99146.34;;;19.59;52.58
34648;BME280;20858;53.622;9.802;2022-09-27T02:27:15;99157.81;;;19.59;52.51
34648;BME280;20858;53.622;9.802;2022-09-27T02:29:48;99146.69;;;19.56;52.61
34648;BME280;20858;53.622;9.802;2022-09-27T02:32:18;99153.00;;;19.55;52.71
34648;BME280;20858;53.622;9.802;2022-09-27T02:34:44;99153.84;;;19.55;52.52
34648;BME280;20858;53.622;9.802;2022-09-27T02:37:10;99147.81;;;19.53;52.55
34648;BME280;20858;53.622;9.802;2022-09-27T02:39:36;99147.13;;;19.51;52.44
34648;BME280;20858;53.622;9.802;2022-09-27T02:42:02;99148.97;;;19.51;52.56
34648;BME280;20858;53.622;9.802;2022-09-27T02:44:28;99144.78;;;19.48;52.54
34648;BME280;20858;53.622;9.802;2022-09-27T02:55:50;99140.22;;;19.40;52.61
34648;BME280;20858;53.622;9.802;2022-09-27T03:00:52;99135.88;;;19.39;52.63
34648;BME280;20858;53.622;9.802;2022-09-27T03:03:42;99136.03;;;19.38;52.60
34648;BME280;20858;53.622;9.802;2022-09-27T03:06:14;99130.88;;;19.36;52.62
34648;BME280;20858;53.622;9.802;2022-09-27T03:08:42;99135.50;;;19.34;52.73
34648;BME280;20858;53.622;9.802;2022-09-27T03:11:08;99135.50;;;19.34;52.68
34648;BME280;20858;53.622;9.802;2022-09-27T03:13:33;99127.84;;;19.31;52.87
34648;BME280;20858;53.622;9.802;2022-09-27T03:16:03;99127.97;;;19.30;52.77
34648;BME280;20858;53.622;9.802;2022-09-27T03:18:29;99127.31;;;19.28;52.74
34648;BME280;20858;53.622;9.802;2022-09-27T03:20:54;99121.97;;;19.28;52.81
34648;BME280;20858;53.622;9.802;2022-09-27T03:23:20;99119.31;;;19.28;52.69
34648;BME280;20858;53.622;9.802;2022-09-27T03:25:45;99118.63;;;19.26;52.87
34648;BME280;20858;53.622;9.802;2022-09-27T03:28:11;99123.09;;;19.25;52.71
34648;BME280;20858;53.622;9.802;2022-09-27T03:30:37;99119.78;;;19.23;52.87
34648;BME280;20858;53.622;9.802;2022-09-27T03:33:02;99120.78;;;19.22;52.91
34648;BME280;20858;53.622;9.802;2022-09-27T03:35:28;99112.78;;;19.22;52.77
34648;BME280;20858;53.622;9.802;2022-09-27T03:37:54;99111.97;;;19.21;52.80
34648;BME280;20858;53.622;9.802;2022-09-27T03:40:19;99108.59;;;19.19;52.85
34648;BME280;20858;53.622;9.802;2022-09-27T03:42:44;99106.94;;;19.18;53.00
34648;BME280;20858;53.622;9.802;2022-09-27T03:45:10;99105.09;;;19.19;52.87
34648;BME280;20858;53.622;9.802;2022-09-27T03:47:39;99100.94;;;19.16;52.85
34648;BME280;20858;53.622;9.802;2022-09-27T03:50:06;99098.28;;;19.16;52.96
34648;BME280;20858;53.622;9.802;2022-09-27T03:52:32;99099.25;;;19.15;52.88
34648;BME280;20858;53.622;9.802;2022-09-27T03:54:58;99093.25;;;19.13;52.98
34648;BME280;20858;53.622;9.802;2022-09-27T03:57:24;99102.22;;;19.12;52.91
34648;BME280;20858;53.622;9.802;2022-09-27T03:59:49;99097.03;;;19.11;52.93
34648;BME280;20858;53.622;9.802;2022-09-27T04:02:17;99098.75;;;19.12;52.94
34648;BME280;20858;53.622;9.802;2022-09-27T04:04:42;99090.75;;;19.12;52.94
34648;BME280;20858;53.622;9.802;2022-09-27T04:07:08;99091.72;;;19.11;53.03
34648;BME280;20858;53.622;9.802;2022-09-27T04:09:38;99083.91;;;19.09;53.09
34648;BME280;20858;53.622;9.802;2022-09-27T04:12:06;99087.69;;;19.07;53.06
34648;BME280;20858;53.622;9.802;2022-09-27T04:14:31;99085.03;;;19.07;53.10
34648;BME280;20858;53.622;9.802;2022-09-27T04:16:57;99088.56;;;19.07;53.13
34648;BME280;20858;53.622;9.802;2022-09-27T04:19:23;99083.38;;;19.06;52.98
34648;BME280;20858;53.622;9.802;2022-09-27T04:21:48;99081.72;;;19.05;53.11
34648;BME280;20858;53.622;9.802;2022-09-27T04:24:13;99085.34;;;19.04;53.10
34648;BME280;20858;53.622;9.802;2022-09-27T04:26:39;99089.69;;;19.05;53.21
34648;BME280;20858;53.622;9.802;2022-09-27T04:29:04;99090.84;;;19.02;52.85
34648;BME280;20858;53.622;9.802;2022-09-27T04:31:30;99086.34;;;19.03;53.13
34648;BME280;20858;53.622;9.802;2022-09-27T04:33:56;99095.28;;;19.02;53.26
34648;BME280;20858;53.622;9.802;2022-09-27T04:36:24;99089.97;;;19.02;53.38
34648;BME280;20858;53.622;9.802;2022-09-27T04:38:58;99095.84;;;19.05;53.61
34648;BME280;20858;53.622;9.802;2022-09-27T04:41:25;99088.69;;;19.06;53.76
34648;BME280;20858;53.622;9.802;2022-09-27T04:43:55;99091.06;;;19.09;53.81
34648;BME280;20858;53.622;9.802;2022-09-27T04:46:21;99087.56;;;19.08;53.94
34648;BME280;20858;53.622;9.802;2022-09-27T04:48:47;99089.22;;;19.09;53.94
34648;BME280;20858;53.622;9.802;2022-09-27T04:51:14;99086.72;;;19.08;54.05
34648;BME280;20858;53.622;9.802;2022-09-27T04:53:43;99083.06;;;19.09;53.97
34648;BME280;20858;53.622;9.802;2022-09-27T04:56:10;99079.44;;;19.10;53.96
34648;BME280;20858;53.622;9.802;2022-09-27T04:58:35;99083.91;;;19.09;53.94
34648;BME280;20858;53.622;9.802;2022-09-27T05:01:01;99083.06;;;19.09;54.14
34648;BME280;20858;53.622;9.802;2022-09-27T05:03:29;99079.25;;;19.11;53.94
34648;BME280;20858;53.622;9.802;2022-09-27T05:05:54;99085.44;;;19.12;54.09
34648;BME280;20858;53.622;9.802;2022-09-27T05:08:19;99093.44;;;19.12;53.90
34648;BME280;20858;53.622;9.802;2022-09-27T05:10:45;99089.31;;;19.17;54.37
34648;BME280;20858;53.622;9.802;2022-09-27T05:13:12;99088.31;;;19.18;54.07
34648;BME280;20858;53.622;9.802;2022-09-27T05:15:37;99092.81;;;19.18;54.01
34648;BME280;20858;53.622;9.802;2022-09-27T05:18:04;99085.66;;;19.18;53.94
34648;BME280;20858;53.622;9.802;2022-09-27T05:20:31;99091.81;;;19.19;53.92
34648;BME280;20858;53.622;9.802;2022-09-27T05:22:56;99094.47;;;19.19;54.07
34648;BME280;20858;53.622;9.802;2022-09-27T05:25:22;99097.81;;;19.21;53.93
34648;BME280;20858;53.622;9.802;2022-09-27T05:27:49;99088.84;;;19.22;54.07
34648;BME280;20858;53.622;9.802;2022-09-27T05:30:14;99091.53;;;19.22;53.76
34648;BME280;20858;53.622;9.802;2022-09-27T05:32:42;99091.34;;;19.23;53.69
34648;BME280;20858;53.622;9.802;2022-09-27T05:35:08;99090.53;;;19.23;53.75
34648;BME280;20858;53.622;9.802;2022-09-27T05:37:34;99086.88;;;19.24;53.83
34648;BME280;20858;53.622;9.802;2022-09-27T05:39:59;99088.53;;;19.25;53.51
34648;BME280;20858;53.622;9.802;2022-09-27T05:42:27;99086.88;;;19.24;53.66
34648;BME280;20858;53.622;9.802;2022-09-27T05:44:53;99093.03;;;19.25;53.60
34648;BME280;20858;53.622;9.802;2022-09-27T05:47:18;99096.50;;;19.25;53.53
34648;BME280;20858;53.622;9.802;2022-09-27T05:49:45;99094.84;;;19.24;53.60
34648;BME280;20858;53.622;9.802;2022-09-27T05:52:11;99098.50;;;19.23;53.42
34648;BME280;20858;53.622;9.802;2022-09-27T05:54:36;99095.84;;;19.23;53.55
34648;BME280;20858;53.622;9.802;2022-09-27T05:57:02;99096.84;;;19.22;53.55
34648;BME280;20858;53.622;9.802;2022-09-27T05:59:27;99103.81;;;19.23;53.63
34648;BME280;20858;53.622;9.802;2022-09-27T06:01:53;99095.13;;;19.21;53.67
34648;BME280;20858;53.622;9.802;2022-09-27T06:04:21;99097.81;;;19.21;53.65
34648;BME280;20858;53.622;9.802;2022-09-27T06:06:47;99108.44;;;19.21;53.57
34648;BME280;20858;53.622;9.802;2022-09-27T06:09:15;99106.78;;;19.20;53.40
34648;BME280;20858;53.622;9.802;2022-09-27T06:11:41;99105.78;;;19.21;53.59
34648;BME280;20858;53.622;9.802;2022-09-27T06:14:12;99104.13;;;19.20;53.77
34648;BME280;20858;53.622;9.802;2022-09-27T06:16:40;99106.78;;;19.20;54.53
34648;BME280;20858;53.622;9.802;2022-09-27T06:19:09;99103.13;;;19.21;54.64
34648;BME280;20858;53.622;9.802;2022-09-27T06:21:34;99102.16;;;19.22;54.55
34648;BME280;20858;53.622;9.802;2022-09-27T06:24:00;99108.44;;;19.21;54.89
34648;BME280;20858;53.622;9.802;2022-09-27T06:26:28;99106.66;;;19.21;54.85
34648;BME280;20858;53.622;9.802;2022-09-27T06:28:57;99109.31;;;19.21;54.95
34648;BME280;20858;53.622;9.802;2022-09-27T06:31:25;99108.44;;;19.21;55.04
34648;BME280;20858;53.622;9.802;2022-09-27T06:33:50;99113.47;;;19.24;54.92
34648;BME280;20858;53.622;9.802;2022-09-27T06:36:16;99121.44;;;19.24;54.92
34648;BME280;20858;53.622;9.802;2022-09-27T06:38:42;99120.44;;;19.25;54.88
34648;BME280;20858;53.622;9.802;2022-09-27T06:41:07;99124.94;;;19.25;54.81
34648;BME280;20858;53.622;9.802;2022-09-27T06:43:34;99126.75;;;19.24;54.97
34648;BME280;20858;53.622;9.802;2022-09-27T06:46:00;99125.94;;;19.23;54.94
34648;BME280;20858;53.622;9.802;2022-09-27T06:48:29;99131.25;;;19.23;54.81
34648;BME280;20858;53.622;9.802;2022-09-27T06:50:55;99131.25;;;19.23;54.65
34648;BME280;20858;53.622;9.802;2022-09-27T06:53:21;99133.25;;;19.21;54.65
34648;BME280;20858;53.622;9.802;2022-09-27T06:55:49;99136.72;;;19.22;54.53
34648;BME280;20858;53.622;9.802;2022-09-27T06:58:17;99141.34;;;19.20;54.63
34648;BME280;20858;53.622;9.802;2022-09-27T07:01:02;99140.69;;;19.18;54.61
34648;BME280;20858;53.622;9.802;2022-09-27T07:03:30;99149.50;;;19.18;54.48
34648;BME280;20858;53.622;9.802;2022-09-27T07:06:04;99144.34;;;19.17;54.52
34648;BME280;20858;53.622;9.802;2022-09-27T07:08:30;99146.00;;;19.18;54.56
34648;BME280;20858;53.622;9.802;2022-09-27T07:11:04;99148.66;;;19.18;54.61
34648;BME280;20858;53.622;9.802;2022-09-27T07:13:30;99152.97;;;19.19;54.51
34648;BME280;20858;53.622;9.802;2022-09-27T07:15:57;99154.66;;;19.20;54.67
34648;BME280;20858;53.622;9.802;2022-09-27T07:18:22;99161.63;;;19.21;54.78
34648;BME280;20858;53.622;9.802;2022-09-27T07:20:48;99153.66;;;19.21;54.76
34648;BME280;20858;53.622;9.802;2022-09-27T07:23:15;99161.63;;;19.21;54.71
34648;BME280;20858;53.622;9.802;2022-09-27T07:25:40;99161.88;;;19.28;54.89
34648;BME280;20858;53.622;9.802;2022-09-27T07:28:14;99163.94;;;19.34;54.61
34648;BME280;20858;53.622;9.802;2022-09-27T07:30:44;99166.69;;;19.42;54.27
34648;BME280;20858;53.622;9.802;2022-09-27T07:33:10;99166.69;;;19.42;54.75
34648;BME280;20858;53.622;9.802;2022-09-27T07:35:39;99163.84;;;19.43;55.05
34648;BME280;20858;53.622;9.802;2022-09-27T07:38:06;99170.84;;;19.44;55.20
34648;BME280;20858;53.622;9.802;2022-09-27T07:40:36;99171.53;;;19.46;54.90
34648;BME280;20858;53.622;9.802;2022-09-27T07:43:04;99171.38;;;19.48;54.66
34648;BME280;20858;53.622;9.802;2022-09-27T07:45:30;99165.75;;;19.51;54.41
34648;BME280;20858;53.622;9.802;2022-09-27T07:47:56;99169.41;;;19.50;54.20
34648;BME280;20858;53.622;9.802;2022-09-27T07:50:22;99173.59;;;19.53;54.24
34648;BME280;20858;53.622;9.802;2022-09-27T07:52:48;99176.63;;;19.58;54.00
34648;BME280;20858;53.622;9.802;2022-09-27T07:55:16;99183.34;;;19.62;54.01
34648;BME280;20858;53.622;9.802;2022-09-27T07:57:42;99178.41;;;19.67;54.10
34648;BME280;20858;53.622;9.802;2022-09-27T08:00:14;99185.09;;;19.71;54.01
34648;BME280;20858;53.622;9.802;2022-09-27T08:02:42;99178.31;;;19.77;53.90
34648;BME280;20858;53.622;9.802;2022-09-27T08:05:09;99179.50;;;19.82;53.85
34648;BME280;20858;53.622;9.802;2022-09-27T08:07:34;99184.38;;;19.87;53.62
34648;BME280;20858;53.622;9.802;2022-09-27T08:10:00;99187.75;;;19.89;53.56
34648;BME280;20858;53.622;9.802;2022-09-27T08:12:25;99184.91;;;19.90;53.65
34648;BME280;20858;53.622;9.802;2022-09-27T08:14:51;99185.75;;;19.91;53.69
34648;BME280;20858;53.622;9.802;2022-09-27T08:17:17;99195.25;;;19.93;53.64
34648;BME280;20858;53.622;9.802;2022-09-27T08:19:43;99201.72;;;19.91;53.56
34648;BME280;20858;53.622;9.802;2022-09-27T08:22:10;99197.03;;;19.85;53.32
34648;BME280;20858;53.622;9.802;2022-09-27T08:24:38;99205.75;;;19.77;53.29
34648;BME280;20858;53.622;9.802;2022-09-27T08:27:06;99201.91;;;19.71;53.38
34648;BME280;20858;53.622;9.802;2022-09-27T08:29:33;99208.22;;;19.70;53.24
34648;BME280;20858;53.622;9.802;2022-09-27T08:32:01;99211.72;;;19.71;53.47
34648;BME280;20858;53.622;9.802;2022-09-27T08:34:26;99216.03;;;19.72;53.12
34648;BME280;20858;53.622;9.802;2022-09-27T08:36:53;99214.22;;;19.72;53.10
34648;BME280;20858;53.622;9.802;2022-09-27T08:39:22;99216.75;;;19.74;53.36
34648;BME280;20858;53.622;9.802;2022-09-27T08:42:01;99219.16;;;19.85;53.15
34648;BME280;20858;53.622;9.802;2022-09-27T08:47:25;99225.94;;;19.80;52.84
34648;BME280;20858;53.622;9.802;2022-09-27T08:50:40;99221.19;;;19.73;52.91
34648;BME280;20858;53.622;9.802;2022-09-27T08:52:51;99229.06;;;19.75;52.69
34648;BME280;20858;53.622;9.802;2022-09-27T08:55:40;99227.06;;;19.77;52.73
34648;BME280;20858;53.622;9.802;2022-09-27T08:58:15;99226.06;;;19.78;52.61
34648;BME280;20858;53.622;9.802;2022-09-27T09:00:43;99226.94;;;19.79;52.77
34648;BME280;20858;53.622;9.802;2022-09-27T09:03:17;99228.88;;;19.77;52.70
34648;BME280;20858;53.622;9.802;2022-09-27T09:05:57;99239.09;;;19.81;52.76
34648;BME280;20858;53.622;9.802;2022-09-27T09:11:50;99245.41;;;19.80;52.83
34648;BME280;20858;53.622;9.802;2022-09-27T09:23:45;99256.25;;;19.69;52.75
34648;BME280;20858;53.622;9.802;2022-09-27T09:29:00;99259.63;;;19.71;52.56
34648;BME280;20858;53.622;9.802;2022-09-27T09:39:27;99267.78;;;19.69;52.54
34648;BME280;20858;53.622;9.802;2022-09-27T09:42:08;99265.94;;;19.70;52.41
34648;BME280;20858;53.622;9.802;2022-09-27T09:44:51;99269.44;;;19.70;52.23
34648;BME280;20858;53.622;9.802;2022-09-27T09:47:54;99274.59;;;19.72;52.35
34648;BME280;20858;53.622;9.802;2022-09-27T09:50:44;99270.44;;;19.69;52.32
34648;BME280;20858;53.622;9.802;2022-09-27T09:53:38;99272.38;;;19.67;52.39
34648;BME280;20858;53.622;9.802;2022-09-27T10:01:25;99267.84;;;19.60;52.22
34648;BME280;20858;53.622;9.802;2022-09-27T10:03:55;99272.72;;;19.64;52.25
34648;BME280;20858;53.622;9.802;2022-09-27T10:06:22;99268.22;;;19.65;52.17
34648;BME280;20858;53.622;9.802;2022-09-27T10:08:48;99268.34;;;19.63;52.29
34648;BME280;20858;53.622;9.802;2022-09-27T10:11:24;99272.00;;;19.62;52.35
34648;BME280;20858;53.622;9.802;2022-09-27T10:13:50;99272.72;;;19.64;52.27
34648;BME280;20858;53.622;9.802;2022-09-27T10:16:18;99280.69;;;19.64;52.22
34648;BME280;20858;53.622;9.802;2022-09-27T10:18:45;99282.50;;;19.64;52.33
34648;BME280;20858;53.622;9.802;2022-09-27T10:21:15;99276.34;;;19.63;52.30
34648;BME280;20858;53.622;9.802;2022-09-27T10:24:03;99283.47;;;19.63;52.45
34648;BME280;20858;53.622;9.802;2022-09-27T10:26:30;99286.03;;;19.64;52.55
34648;BME280;20858;53.622;9.802;2022-09-27T10:28:57;99284.03;;;19.66;52.27
34648;BME280;20858;53.622;9.802;2022-09-27T10:31:22;99287.38;;;19.68;52.47
34648;BME280;20858;53.622;9.802;2022-09-27T10:36:31;99295.66;;;19.65;52.59
34648;BME280;20858;53.622;9.802;2022-09-27T10:38:59;99286.03;;;19.64;52.62
34648;BME280;20858;53.622;9.802;2022-09-27T10:41:40;99297.19;;;19.68;52.57
34648;BME280;20858;53.622;9.802;2022-09-27T10:46:41;99286.69;;;19.66;52.54
34648;BME280;20858;53.622;9.802;2022-09-27T10:49:18;99292.84;;;19.67;52.41
34648;BME280;20858;53.622;9.802;2022-09-27T10:51:45;99292.84;;;19.67;52.43
34648;BME280;20858;53.622;9.802;2022-09-27T10:54:22;99290.34;;;19.65;52.44
34648;BME280;20858;53.622;9.802;2022-09-27T10:56:57;99287.53;;;19.67;52.47
34648;BME280;20858;53.622;9.802;2022-09-27T10:59:24;99283.19;;;19.66;52.52
34648;BME280;20858;53.622;9.802;2022-09-27T11:01:50;99291.03;;;19.67;52.37
34648;BME280;20858;53.622;9.802;2022-09-27T11:04:28;99286.53;;;19.68;52.34
34648;BME280;20858;53.622;9.802;2022-09-27T11:07:15;99286.25;;;19.71;52.40
34648;BME280;20858;53.622;9.802;2022-09-27T11:10:00;99292.25;;;19.73;52.50
34648;BME280;20858;53.622;9.802;2022-09-27T11:12:29;99299.56;;;19.71;52.75
34648;BME280;20858;53.622;9.802;2022-09-27T11:15:00;99295.22;;;19.70;52.64
34648;BME280;20858;53.622;9.802;2022-09-27T11:25:26;99310.50;;;19.68;53.40
34648;BME280;20858;53.622;9.802;2022-09-27T11:33:50;99305.88;;;19.70;54.11
34648;BME280;20858;53.622;9.802;2022-09-27T11:39:05;99311.88;;;19.72;54.50
34648;BME280;20858;53.622;9.802;2022-09-27T11:44:13;99306.69;;;19.70;54.92
34648;BME280;20858;53.622;9.802;2022-09-27T11:46:45;99313.69;;;19.71;54.74
34648;BME280;20858;53.622;9.802;2022-09-27T11:49:34;99313.69;;;19.71;54.74
34648;BME280;20858;53.622;9.802;2022-09-27T11:58:12;99318.72;;;19.75;54.37
34648;BME280;20858;53.622;9.802;2022-09-27T12:06:10;99319.69;;;19.73;54.25
34648;BME280;20858;53.622;9.802;2022-09-27T12:11:29;99310.88;;;19.73;54.21
34648;BME280;20858;53.622;9.802;2022-09-27T12:14:01;99311.69;;;19.73;54.06
34648;BME280;20858;53.622;9.802;2022-09-27T12:16:30;99317.19;;;19.72;53.94
34648;BME280;20858;53.622;9.802;2022-09-27T12:18:58;99322.66;;;19.70;54.05
34648;BME280;20858;53.622;9.802;2022-09-27T12:21:24;99325.47;;;19.69;53.86
34648;BME280;20858;53.622;9.802;2022-09-27T12:23:53;99318.47;;;19.68;53.81
34648;BME280;20858;53.622;9.802;2022-09-27T12:26:38;99315.69;;;19.69;53.70
34648;BME280;20858;53.622;9.802;2022-09-27T12:29:16;99321.84;;;19.70;53.56
34648;BME280;20858;53.622;9.802;2022-09-27T12:31:50;99320.31;;;19.67;53.54
34648;BME280;20858;53.622;9.802;2022-09-27T12:34:24;99326.63;;;19.66;53.75
34648;BME280;20858;53.622;9.802;2022-09-27T12:37:08;99324.94;;;19.65;53.74
34648;BME280;20858;53.622;9.802;2022-09-27T12:42:18;99331.09;;;19.66;53.39
34648;BME280;20858;53.622;9.802;2022-09-27T12:44:44;99329.13;;;19.68;53.45
34648;BME280;20858;53.622;9.802;2022-09-27T12:47:29;99330.13;;;19.67;53.47
34648;BME280;20858;53.622;9.802;2022-09-27T12:50:14;99321.28;;;19.66;53.31
34648;BME280;20858;53.622;9.802;2022-09-27T12:52:51;99318.47;;;19.68;53.44
34648;BME280;20858;53.622;9.802;2022-09-27T13:03:42;99325.94;;;19.64;53.37
34648;BME280;20858;53.622;9.802;2022-09-27T13:12:10;99330.94;;;19.67;53.15
34648;BME280;20858;53.622;9.802;2022-09-27T13:15:02;99338.09;;;19.67;53.21
34648;BME280;20858;53.622;9.802;2022-09-27T13:22:56;99343.91;;;19.80;53.58
34648;BME280;20858;53.622;9.802;2022-09-27T13:25:56;99345.28;;;19.84;54.04
34648;BME280;20858;53.622;9.802;2022-09-27T13:31:04;99345.06;;;19.95;53.52
34648;BME280;20858;53.622;9.802;2022-09-27T13:33:41;99346.72;;;19.96;53.31
34648;BME280;20858;53.622;9.802;2022-09-27T13:36:23;99345.59;;;19.99;53.29
34648;BME280;20858;53.622;9.802;2022-09-27T13:47:03;99350.31;;;20.05;53.58
34648;BME280;20858;53.622;9.802;2022-09-27T13:49:43;99361.19;;;20.12;53.22
34648;BME280;20858;53.622;9.802;2022-09-27T13:52:19;99360.22;;;20.13;53.53
34648;BME280;20858;53.622;9.802;2022-09-27T13:54:55;99353.91;;;20.14;53.38
34648;BME280;20858;53.622;9.802;2022-09-27T14:00:07;99355.28;;;20.18;53.00
34648;BME280;20858;53.622;9.802;2022-09-27T14:02:44;99361.44;;;20.18;53.56
34648;BME280;20858;53.622;9.802;2022-09-27T14:05:19;99361.81;;;20.23;53.45
34648;BME280;20858;53.622;9.802;2022-09-27T14:07:45;99372.28;;;20.25;53.29
34648;BME280;20858;53.622;9.802;2022-09-27T14:10:16;99362.47;;;20.25;53.61
34648;BME280;20858;53.622;9.802;2022-09-27T14:12:43;99374.66;;;20.28;53.77
34648;BME280;20858;53.622;9.802;2022-09-27T14:15:20;99368.19;;;20.31;53.56
34648;BME280;20858;53.622;9.802;2022-09-27T14:17:47;99372.38;;;20.33;53.34
34648;BME280;20858;53.622;9.802;2022-09-27T14:20:29;99366.06;;;20.34;53.35
34648;BME280;20858;53.622;9.802;2022-09-27T14:22:59;99373.06;;;20.35;53.17
34648;BME280;20858;53.622;9.802;2022-09-27T14:25:24;99378.09;;;20.38;53.34
34648;BME280;20858;53.622;9.802;2022-09-27T14:27:50;99377.09;;;20.39;53.09
34648;BME280;20858;53.622;9.802;2022-09-27T14:30:17;99384.09;;;20.40;53.06
34648;BME280;20858;53.622;9.802;2022-09-27T14:32:52;99385.78;;;20.41;53.23
34648;BME280;20858;53.622;9.802;2022-09-27T14:35:32;99387.22;;;20.36;53.16
34648;BME280;20858;53.622;9.802;2022-09-27T14:38:19;99385.00;;;20.31;53.22
34648;BME280;20858;53.622;9.802;2022-09-27T14:41:00;99385.06;;;20.21;53.17
34648;BME280;20858;53.622;9.802;2022-09-27T14:43:27;99390.84;;;20.17;53.45
34648;BME280;20858;53.622;9.802;2022-09-27T14:45:58;99387.75;;;20.21;52.81
34648;BME280;20858;53.622;9.802;2022-09-27T14:48:35;99388.19;;;20.17;52.92
34648;BME280;20858;53.622;9.802;2022-09-27T14:51:04;99400.47;;;20.10;52.51
34648;BME280;20858;53.622;9.802;2022-09-27T14:53:50;99400.06;;;20.05;52.41
34648;BME280;20858;53.622;9.802;2022-09-27T14:56:23;99400.25;;;20.03;52.06
34648;BME280;20858;53.622;9.802;2022-09-27T14:58:54;99399.53;;;20.01;52.09
34648;BME280;20858;53.622;9.802;2022-09-27T15:01:27;99403.34;;;19.98;52.17
34648;BME280;20858;53.622;9.802;2022-09-27T15:03:55;99396.47;;;19.96;52.15
34648;BME280;20858;53.622;9.802;2022-09-27T15:06:21;99406.91;;;19.89;52.24
34648;BME280;20858;53.622;9.802;2022-09-27T15:08:49;99404.97;;;19.82;52.43
34648;BME280;20858;53.622;9.802;2022-09-27T15:11:16;99407.19;;;19.86;52.36
34648;BME280;20858;53.622;9.802;2022-09-27T15:13:43;99410.25;;;19.91;51.88
34648;BME280;20858;53.622;9.802;2022-09-27T15:16:15;99418.06;;;19.93;51.98
34648;BME280;20858;53.622;9.802;2022-09-27T15:18:44;99413.91;;;19.90;52.10
34648;BME280;20858;53.622;9.802;2022-09-27T15:23:54;99420.22;;;20.07;52.42
34648;BME280;20858;53.622;9.802;2022-09-27T15:26:40;99422.91;;;20.07;52.73
34648;BME280;20858;53.622;9.802;2022-09-27T15:29:17;99424.88;;;20.05;52.46
34648;BME280;20858;53.622;9.802;2022-09-27T15:31:44;99411.84;;;20.02;52.70
34648;BME280;20858;53.622;9.802;2022-09-27T15:34:16;99417.19;;;20.02;52.44
34648;BME280;20858;53.622;9.802;2022-09-27T15:39:16;99424.72;;;20.07;52.44
34648;BME280;20858;53.622;9.802;2022-09-27T15:44:37;99428.94;;;20.09;52.56
34648;BME280;20858;53.622;9.802;2022-09-27T15:47:03;99441.25;;;20.10;52.39
34648;BME280;20858;53.622;9.802;2022-09-27T15:49:30;99444.91;;;20.09;52.46
34648;BME280;20858;53.622;9.802;2022-09-27T15:51:58;99436.91;;;20.09;52.41
34648;BME280;20858;53.622;9.802;2022-09-27T15:54:26;99444.06;;;20.09;52.47